Dunlow, WV (25511)

03:25 PM EDT del 31 Luglio 2015 (GMT -0400)
Near Salt Rock Elementary School | | Change Station
CLOSE
Current Station
Stazione meteo personale
Location: Salt Rock, WV
Altitudine: 627 ft
Stazioni meteo nelle vicinanze

Alt. 627 ft 38.32 °N, 82.23 °W | Updated 5 minutes ago

Molto nuvoloso
Molto nuvoloso
84.3 °F
Sembra 87 °F
N
0.0
Vento Variabile Vento da SSE
Gusts 2.0 mph

Oggi
Massima -- | Minima -- °F
--% Possibilità di precip.
Ieri
Massima -- | Minima -- °F
Precip. -- in
6:31 AM 8:39 PM
Luna piena, 100% visible
Pressione 30.05 in
Visibilità 10.0 miglia
Nuvole Nubi sparse 6500 ft
Indice di calore 87 °F
Punto di rugiada 68 °F
Umidità 58%
Piovosità 0.00 in
Spessore del manto nevoso Non disponibile.
Raggi UV 8 fuori da 12
Polline 4.60 fuori da 12
Qualità dell'aria Non disponibile.
Flu Activity Non disponibile.
METAR KSJS 311915Z AUTO 34003KT 10SM SCT065 29/14 A3005 RMK AO2 T02910142

More Conditions Fewer Conditions

Pressione 30.05 in
Visibilità 10.0 miglia
Nuvole Nubi sparse 6500 ft
Indice di calore 87 °F
Punto di rugiada 68 °F
Umidità 58%
Piovosità 0.00 in
Spessore del manto nevoso Non disponibile.
Raggi UV 8 fuori da 12
Polline 4.60 fuori da 12
Qualità dell'aria Non disponibile.
Flu Activity Non disponibile.
METAR KSJS 311915Z AUTO 34003KT 10SM SCT065 29/14 A3005 RMK AO2 T02910142

More Conditions Fewer Conditions

10-Day Weather Forecast

×

Almanac

Astronomia

Jul. 31, 2015 Alba Tramonto
Ora attuale
Crepuscolo civile
Crepuscolo nautico
Crepuscolo astronomico
Luna
Estensione della luce visibile
Lunghezza del giorno
Tomorrow will be .
, % of the Moon is Illuminated

Gli estremi di oggi

State Highs State Lows

Community

WunderPhotos

Upload Photos

1,842,710 foto caricate!

WunderBlogs® & News

Nearby

Qualità dell'aria

  Qualità dell'aria Indice AQ Inquinante
Not available.

Profondità neve

Stazione Profondità Altitudine

Attività sismica

Città  Distanza Mag. Data & Ora
Minimo Magnitudo Mostrato è 2.5.

Temperature delle acque costiere

Località Temperatura

Stations

Stazioni meteo nelle vicinanze

Ubicazione della stazione Temp. Raffreddamento del vento Punto di rugiada Umidità Vento Precip. Alt. Aggiornato Tipo